createdAt,value
2022-08-28T00:00:43.652Z,91.40
2022-08-28T00:03:15.585Z,91.30
2022-08-28T00:05:47.004Z,91.30
2022-08-28T00:08:17.109Z,91.20
2022-08-28T00:10:51.552Z,91.10
2022-08-28T00:13:23.275Z,91.20
2022-08-28T00:15:55.897Z,91.20
2022-08-28T00:18:26.507Z,91.20
2022-08-28T00:20:54.407Z,91.20
2022-08-28T00:23:22.798Z,91.30
2022-08-28T00:25:50.108Z,91.20
2022-08-28T00:28:24.144Z,91.10
2022-08-28T00:30:54.872Z,91.20
2022-08-28T00:33:33.169Z,91.20
2022-08-28T00:36:03.981Z,91.20
2022-08-28T00:38:31.708Z,91.20
2022-08-28T00:41:03.725Z,91.20
2022-08-28T00:43:47.081Z,91.10
2022-08-28T00:46:22.125Z,91.20
2022-08-28T00:48:50.144Z,91.20
2022-08-28T00:51:39.001Z,91.20
2022-08-28T00:54:08.038Z,91.10
2022-08-28T00:56:37.984Z,91.00
2022-08-28T00:59:11.854Z,91.10
2022-08-28T01:01:43.319Z,91.00
2022-08-28T01:04:19.010Z,91.10
2022-08-28T01:06:53.559Z,91.10
2022-08-28T01:09:24.440Z,91.10
2022-08-28T01:11:54.463Z,91.10
2022-08-28T01:14:26.687Z,91.10
2022-08-28T01:16:57.632Z,91.10
2022-08-28T01:19:56.537Z,91.20
2022-08-28T01:22:37.327Z,91.10
2022-08-28T01:25:18.686Z,91.20
2022-08-28T01:27:45.915Z,91.10
2022-08-28T01:30:16.646Z,91.20
2022-08-28T01:32:47.776Z,91.10
2022-08-28T01:35:20.309Z,91.20
2022-08-28T01:37:48.064Z,91.20
2022-08-28T01:40:23.981Z,91.20
2022-08-28T01:42:51.234Z,91.10
2022-08-28T01:45:20.929Z,91.10
2022-08-28T01:47:48.626Z,91.20
2022-08-28T01:50:21.821Z,91.10
2022-08-28T01:52:51.549Z,91.50
2022-08-28T01:55:20.655Z,91.20
2022-08-28T01:57:53.925Z,91.10
2022-08-28T02:00:27.643Z,91.20
2022-08-28T02:02:56.774Z,91.20
2022-08-28T02:05:25.671Z,91.10
2022-08-28T02:07:53.177Z,91.20
2022-08-28T02:10:26.538Z,91.20
2022-08-28T02:12:59.205Z,91.20
2022-08-28T02:15:28.287Z,91.30
2022-08-28T02:17:56.052Z,91.30
2022-08-28T02:20:27.070Z,91.20
2022-08-28T02:22:55.058Z,91.30
2022-08-28T02:25:25.799Z,91.20
2022-08-28T02:27:53.363Z,91.20
2022-08-28T02:30:23.572Z,91.20
2022-08-28T02:32:53.327Z,91.20
2022-08-28T02:35:26.204Z,91.20
2022-08-28T02:37:54.593Z,91.20
2022-08-28T02:40:26.024Z,91.20
2022-08-28T02:42:55.735Z,91.20
2022-08-28T02:45:25.215Z,91.20
2022-08-28T02:47:53.821Z,91.20
2022-08-28T02:50:24.061Z,91.20
2022-08-28T02:52:52.283Z,91.20
2022-08-28T02:55:20.731Z,91.20
2022-08-28T02:57:48.713Z,91.30
2022-08-28T03:00:21.116Z,91.20
2022-08-28T03:02:53.418Z,91.20
2022-08-28T03:05:23.275Z,91.20
2022-08-28T03:07:53.333Z,91.10
2022-08-28T03:10:24.008Z,91.10
2022-08-28T03:12:51.768Z,91.20
2022-08-28T03:15:19.290Z,91.10
2022-08-28T03:17:49.162Z,91.10
2022-08-28T03:20:20.181Z,91.20
2022-08-28T03:23:05.923Z,91.20
2022-08-28T03:25:33.135Z,91.30
2022-08-28T03:28:05.274Z,91.20
2022-08-28T03:30:32.560Z,91.20
2022-08-28T03:33:00.740Z,91.20
2022-08-28T03:35:27.968Z,91.20
2022-08-28T03:37:55.225Z,91.30
2022-08-28T03:40:24.720Z,91.30
2022-08-28T03:42:53.206Z,91.20
2022-08-28T03:45:21.264Z,91.20
2022-08-28T03:47:48.776Z,91.30
2022-08-28T03:50:18.569Z,91.30
2022-08-28T03:52:49.395Z,91.30
2022-08-28T03:55:20.141Z,91.20
2022-08-28T03:57:47.325Z,91.20
2022-08-28T04:00:20.436Z,91.40
2022-08-28T04:02:47.628Z,91.20
2022-08-28T04:05:15.785Z,91.20
2022-08-28T04:07:45.809Z,91.20
2022-08-28T04:10:15.907Z,91.30
2022-08-28T04:12:44.476Z,91.30
2022-08-28T04:15:15.288Z,91.50
2022-08-28T04:17:42.513Z,91.40
2022-08-28T04:20:11.038Z,91.30
2022-08-28T04:22:40.664Z,91.40
2022-08-28T04:25:08.904Z,91.50
2022-08-28T04:27:38.633Z,91.50
2022-08-28T04:30:09.741Z,91.30
2022-08-28T04:32:38.888Z,91.40
2022-08-28T04:35:13.475Z,91.30
2022-08-28T04:37:43.859Z,91.50
2022-08-28T04:40:15.974Z,91.50
2022-08-28T04:42:45.091Z,91.40
2022-08-28T04:45:14.963Z,91.40
2022-08-28T04:47:44.682Z,91.40
2022-08-28T04:50:16.592Z,91.60
2022-08-28T04:52:43.797Z,91.50
2022-08-28T04:55:14.490Z,91.50
2022-08-28T04:57:45.431Z,91.50
2022-08-28T05:00:15.398Z,91.50
2022-08-28T05:02:42.854Z,91.50
2022-08-28T05:05:11.775Z,91.60
2022-08-28T05:07:41.237Z,91.60
2022-08-28T05:10:14.922Z,91.50
2022-08-28T05:12:42.140Z,91.80
2022-08-28T05:15:12.609Z,91.60
2022-08-28T05:17:42.374Z,91.60
2022-08-28T05:20:10.040Z,91.50
2022-08-28T05:22:37.243Z,91.80
2022-08-28T05:25:06.953Z,91.60
2022-08-28T05:27:35.405Z,91.60
2022-08-28T05:30:05.813Z,91.80
2022-08-28T05:32:33.191Z,91.70
2022-08-28T05:35:00.758Z,91.70
2022-08-28T05:37:28.169Z,91.90
2022-08-28T05:39:55.756Z,92.00
2022-08-28T05:42:30.590Z,91.90
2022-08-28T05:44:59.503Z,91.70
2022-08-28T05:47:32.652Z,91.80
2022-08-28T05:50:04.528Z,92.00
2022-08-28T05:52:34.831Z,92.00
2022-08-28T05:55:05.517Z,92.00
2022-08-28T05:57:32.696Z,92.00
2022-08-28T06:00:00.109Z,92.00
2022-08-28T06:02:34.470Z,92.00
2022-08-28T06:05:02.179Z,91.90
2022-08-28T06:07:29.452Z,92.10
2022-08-28T06:09:59.308Z,92.20
2022-08-28T06:12:26.546Z,92.10
2022-08-28T06:14:56.042Z,92.00
2022-08-28T06:17:26.589Z,92.10
2022-08-28T06:19:53.943Z,92.10
2022-08-28T06:22:21.131Z,92.10
2022-08-28T06:24:48.404Z,92.00
2022-08-28T06:27:18.099Z,92.20
2022-08-28T06:29:45.848Z,92.30
2022-08-28T06:32:15.191Z,92.40
2022-08-28T06:34:42.934Z,92.20
2022-08-28T06:37:10.339Z,92.30
2022-08-28T06:39:39.881Z,92.40
2022-08-28T06:42:07.264Z,92.40
2022-08-28T06:44:38.509Z,92.40
2022-08-28T06:47:06.265Z,92.60
2022-08-28T06:49:36.160Z,92.40
2022-08-28T06:52:03.611Z,92.40
2022-08-28T06:54:31.144Z,92.30
2022-08-28T06:57:04.601Z,92.40
2022-08-28T06:59:39.278Z,92.40
2022-08-28T07:02:10.275Z,92.30
2022-08-28T07:04:38.104Z,92.40
2022-08-28T07:07:06.477Z,92.60
2022-08-28T07:09:33.706Z,92.50
2022-08-28T07:12:08.999Z,92.40
2022-08-28T07:14:38.154Z,92.30
2022-08-28T07:17:07.267Z,92.50
2022-08-28T07:19:34.528Z,92.90
2022-08-28T07:22:04.835Z,92.60
2022-08-28T07:24:32.126Z,92.90
2022-08-28T07:27:02.541Z,92.70
2022-08-28T07:29:35.403Z,92.70
2022-08-28T07:32:03.954Z,92.80
2022-08-28T07:34:39.030Z,92.60
2022-08-28T07:37:10.177Z,92.80
2022-08-28T07:39:40.634Z,92.70
2022-08-28T07:42:10.727Z,93.00
2022-08-28T07:44:49.806Z,92.70
2022-08-28T07:47:18.552Z,92.80
2022-08-28T07:49:46.025Z,92.60
2022-08-28T07:52:13.339Z,92.70
2022-08-28T07:54:40.832Z,92.60
2022-08-28T07:57:10.551Z,92.90
2022-08-28T07:59:38.446Z,93.00
2022-08-28T08:02:07.037Z,92.80
2022-08-28T08:04:39.989Z,92.80
2022-08-28T08:07:12.893Z,92.80
2022-08-28T08:09:42.230Z,92.90
2022-08-28T08:12:17.763Z,93.10
2022-08-28T08:14:45.705Z,93.10
2022-08-28T08:17:13.052Z,92.90
2022-08-28T08:19:44.655Z,93.20
2022-08-28T08:22:16.492Z,93.10
2022-08-28T08:24:45.948Z,93.00
2022-08-28T08:27:13.228Z,93.10
2022-08-28T08:29:42.493Z,93.10
2022-08-28T08:32:14.426Z,93.10
2022-08-28T08:34:47.992Z,93.10
2022-08-28T08:37:17.988Z,93.10
2022-08-28T08:39:47.713Z,93.10
2022-08-28T08:42:30.512Z,93.00
2022-08-28T08:45:00.293Z,93.00
2022-08-28T08:47:53.978Z,93.00
2022-08-28T08:50:30.952Z,92.80
2022-08-28T08:53:16.936Z,92.70
2022-08-28T08:55:57.895Z,92.80
2022-08-28T08:58:36.230Z,92.70
2022-08-28T09:01:09.634Z,92.80
2022-08-28T09:03:55.075Z,92.80
2022-08-28T09:06:44.610Z,92.60
2022-08-28T09:09:21.080Z,92.80
2022-08-28T09:11:57.182Z,92.80
2022-08-28T09:14:38.659Z,92.70
2022-08-28T09:17:06.968Z,92.60
2022-08-28T09:19:36.556Z,92.70
2022-08-28T09:22:08.397Z,92.50
2022-08-28T09:24:41.218Z,92.40
2022-08-28T09:27:29.781Z,92.30
2022-08-28T09:30:07.557Z,92.50
2022-08-28T09:32:41.548Z,92.40
2022-08-28T09:35:27.970Z,92.20
2022-08-28T09:38:27.912Z,92.00
2022-08-28T09:41:27.904Z,92.00
2022-08-28T09:43:55.991Z,92.00
2022-08-28T09:46:31.989Z,91.60
2022-08-28T09:49:12.845Z,91.90
2022-08-28T09:51:40.808Z,91.80
2022-08-28T09:54:22.596Z,91.50
2022-08-28T09:56:55.176Z,91.60
2022-08-28T09:59:24.742Z,91.30
2022-08-28T10:02:02.190Z,90.90
2022-08-28T10:04:45.922Z,91.50
2022-08-28T10:07:23.766Z,91.00
2022-08-28T10:10:26.275Z,91.00
2022-08-28T10:13:20.510Z,91.30
2022-08-28T10:16:02.179Z,91.20
2022-08-28T10:18:50.114Z,91.40
2022-08-28T10:21:37.678Z,91.00
2022-08-28T10:24:34.184Z,91.20
2022-08-28T10:27:07.555Z,91.20
2022-08-28T10:29:51.730Z,91.30
2022-08-28T10:32:24.033Z,91.10
2022-08-28T10:35:07.924Z,91.10
2022-08-28T10:37:55.267Z,91.60
2022-08-28T10:40:29.118Z,91.50
2022-08-28T10:43:11.084Z,91.10
2022-08-28T10:45:39.675Z,91.00
2022-08-28T10:48:25.167Z,91.40
2022-08-28T10:50:57.634Z,91.40
2022-08-28T10:53:30.820Z,90.90
2022-08-28T10:56:18.073Z,90.90
2022-08-28T10:58:51.314Z,90.30
2022-08-28T11:01:32.689Z,90.80
2022-08-28T11:04:07.312Z,90.60
2022-08-28T11:06:43.333Z,91.00
2022-08-28T11:09:29.356Z,90.90
2022-08-28T11:12:19.900Z,91.20
2022-08-28T11:14:51.418Z,90.90
2022-08-28T11:17:25.399Z,91.00
2022-08-28T11:20:28.998Z,91.20
2022-08-28T11:23:13.293Z,91.30
2022-08-28T11:25:58.827Z,90.80
2022-08-28T11:28:27.114Z,91.00
2022-08-28T11:31:06.011Z,91.00
2022-08-28T11:33:47.902Z,90.80
2022-08-28T11:36:24.207Z,91.00
2022-08-28T11:38:51.345Z,90.80
2022-08-28T11:41:24.352Z,90.80
2022-08-28T11:44:09.716Z,90.50
2022-08-28T11:46:50.695Z,90.70
2022-08-28T11:49:26.908Z,89.90
2022-08-28T11:52:18.340Z,90.20
2022-08-28T11:55:06.035Z,90.40
2022-08-28T12:01:01.606Z,90.00
2022-08-28T12:03:59.474Z,90.00
2022-08-28T12:06:45.087Z,90.10
2022-08-28T12:09:52.767Z,91.10
2022-08-28T12:12:24.872Z,90.50
2022-08-28T12:15:00.921Z,90.00
2022-08-28T12:17:42.065Z,90.50
2022-08-28T12:20:28.287Z,88.90
2022-08-28T12:23:01.105Z,89.20
2022-08-28T12:25:42.295Z,89.80
2022-08-28T12:28:26.946Z,89.50
2022-08-28T12:31:00.065Z,89.90
2022-08-28T12:33:36.725Z,88.50
2022-08-28T12:36:10.528Z,89.10
2022-08-28T12:38:40.688Z,89.20
2022-08-28T12:41:17.087Z,88.90
2022-08-28T12:43:48.535Z,90.20
2022-08-28T12:46:27.224Z,89.90
2022-08-28T12:49:02.183Z,88.40
2022-08-28T12:51:30.631Z,88.50
2022-08-28T12:54:07.698Z,88.60
2022-08-28T12:56:38.615Z,88.80
2022-08-28T12:59:40.165Z,89.00
2022-08-28T13:02:33.543Z,87.40
2022-08-28T13:05:03.033Z,86.40
2022-08-28T13:07:34.872Z,87.80
2022-08-28T13:10:19.396Z,88.00
2022-08-28T13:12:56.337Z,89.10
2022-08-28T13:15:46.432Z,89.60
2022-08-28T13:18:55.433Z,87.70
2022-08-28T13:21:33.455Z,87.40
2022-08-28T13:24:20.633Z,88.00
2022-08-28T13:26:59.240Z,88.10
2022-08-28T13:29:26.681Z,88.30
2022-08-28T13:32:04.632Z,89.00
2022-08-28T13:34:35.035Z,90.00
2022-08-28T13:37:07.265Z,87.80
2022-08-28T13:39:44.734Z,89.40
2022-08-28T13:42:25.480Z,88.00
2022-08-28T13:44:56.106Z,89.30
2022-08-28T13:47:23.333Z,89.20
2022-08-28T13:49:57.381Z,88.10
2022-08-28T13:52:29.513Z,87.90
2022-08-28T13:54:59.483Z,87.90
2022-08-28T13:57:29.328Z,88.00
2022-08-28T14:00:02.746Z,87.80
2022-08-28T14:02:50.751Z,85.60
2022-08-28T14:05:18.286Z,85.10
2022-08-28T14:07:45.537Z,85.30
2022-08-28T14:10:17.104Z,87.00
2022-08-28T14:12:49.313Z,87.30
2022-08-28T14:15:17.718Z,88.30
2022-08-28T14:17:47.374Z,86.20
2022-08-28T14:20:15.180Z,87.20
2022-08-28T14:22:42.798Z,87.00
2022-08-28T14:25:10.858Z,88.10
2022-08-28T14:27:40.360Z,87.50
2022-08-28T14:30:11.498Z,87.10
2022-08-28T14:32:39.502Z,85.30
2022-08-28T14:35:07.080Z,85.70
2022-08-28T14:37:41.901Z,85.80
2022-08-28T14:40:12.738Z,85.90
2022-08-28T14:42:41.867Z,86.50
2022-08-28T14:45:11.642Z,85.90
2022-08-28T14:47:41.460Z,86.10
2022-08-28T14:50:09.159Z,85.40
2022-08-28T14:52:38.996Z,85.60
2022-08-28T14:55:06.537Z,85.60
2022-08-28T14:57:33.730Z,84.10
2022-08-28T15:00:00.945Z,84.70
2022-08-28T15:02:32.734Z,84.20
2022-08-28T15:05:00.157Z,82.90
2022-08-28T15:07:29.819Z,83.30
2022-08-28T15:09:57.176Z,84.40
2022-08-28T15:12:24.426Z,83.90
2022-08-28T15:14:56.953Z,83.50
2022-08-28T15:17:34.615Z,83.70
2022-08-28T15:20:03.989Z,83.30
2022-08-28T15:22:31.301Z,84.00
2022-08-28T15:25:00.943Z,84.40
2022-08-28T15:27:30.585Z,84.60
2022-08-28T15:30:02.793Z,84.80
2022-08-28T15:32:30.004Z,85.10
2022-08-28T15:34:57.215Z,85.60
2022-08-28T15:37:24.494Z,85.10
2022-08-28T15:40:20.084Z,84.70
2022-08-28T15:42:52.446Z,83.30
2022-08-28T15:45:22.822Z,83.60
2022-08-28T15:47:53.576Z,84.30
2022-08-28T15:50:25.836Z,84.40
2022-08-28T15:52:53.546Z,82.80
2022-08-28T15:55:27.840Z,85.00
2022-08-28T15:57:55.163Z,85.40
2022-08-28T16:00:24.938Z,85.70
2022-08-28T16:02:52.212Z,82.20
2022-08-28T16:05:19.505Z,82.00
2022-08-28T16:07:49.261Z,83.50
2022-08-28T16:10:17.028Z,84.10
2022-08-28T16:12:47.996Z,83.00
2022-08-28T16:15:29.416Z,83.30
2022-08-28T16:17:59.327Z,82.40
2022-08-28T16:20:29.214Z,83.80
2022-08-28T16:22:56.410Z,84.00
2022-08-28T16:25:26.269Z,82.40
2022-08-28T16:27:58.536Z,84.20
2022-08-28T16:30:26.111Z,83.90
2022-08-28T16:32:54.204Z,84.70
2022-08-28T16:35:21.985Z,83.40
2022-08-28T16:37:51.586Z,82.80
2022-08-28T16:40:23.493Z,82.70
2022-08-28T16:42:53.105Z,80.70
2022-08-28T16:45:20.469Z,78.70
2022-08-28T16:47:48.180Z,78.90
2022-08-28T16:50:19.359Z,80.20
2022-08-28T16:52:53.727Z,79.30
2022-08-28T16:55:22.986Z,79.40
2022-08-28T16:57:53.144Z,79.20
2022-08-28T17:00:26.147Z,79.60
2022-08-28T17:02:56.138Z,80.10
2022-08-28T17:05:24.838Z,81.30
2022-08-28T17:07:52.320Z,80.40
2022-08-28T17:10:25.656Z,81.60
2022-08-28T17:12:53.949Z,80.60
2022-08-28T17:15:25.547Z,80.40
2022-08-28T17:17:52.826Z,80.10
2022-08-28T17:20:41.217Z,79.10
2022-08-28T17:23:10.856Z,79.90
2022-08-28T17:25:38.047Z,80.30
2022-08-28T17:28:05.269Z,80.50
2022-08-28T17:30:34.946Z,80.40
2022-08-28T17:33:07.137Z,80.80
2022-08-28T17:35:41.930Z,81.30
2022-08-28T17:38:12.825Z,81.70
2022-08-28T17:40:44.656Z,81.10
2022-08-28T17:43:14.075Z,80.30
2022-08-28T17:45:46.263Z,80.60
2022-08-28T17:48:14.353Z,80.50
2022-08-28T17:50:46.157Z,80.80
2022-08-28T17:53:13.388Z,80.80
2022-08-28T17:55:42.916Z,80.90
2022-08-28T17:58:13.195Z,81.00
2022-08-28T18:00:44.194Z,80.10
2022-08-28T18:03:11.380Z,80.40
2022-08-28T18:05:41.364Z,80.50
2022-08-28T18:08:11.069Z,79.70
2022-08-28T18:10:38.356Z,78.90
2022-08-28T18:13:06.790Z,80.10
2022-08-28T18:15:34.240Z,80.40
2022-08-28T18:18:04.315Z,80.60
2022-08-28T18:20:33.968Z,80.70
2022-08-28T18:23:02.059Z,80.60
2022-08-28T18:25:41.527Z,80.50
2022-08-28T18:28:17.073Z,80.70
2022-08-28T18:30:47.746Z,80.60
2022-08-28T18:33:17.487Z,80.60
2022-08-28T18:35:49.407Z,80.50
2022-08-28T18:38:22.937Z,80.30
2022-08-28T18:40:53.464Z,80.30
2022-08-28T18:43:22.404Z,80.50
2022-08-28T18:45:49.735Z,80.40
2022-08-28T18:48:19.784Z,80.30
2022-08-28T18:50:51.527Z,80.00
2022-08-28T18:53:21.353Z,80.20
2022-08-28T18:55:52.726Z,80.30
2022-08-28T18:58:23.763Z,80.20
2022-08-28T19:00:53.367Z,80.20
2022-08-28T19:03:24.484Z,80.00
2022-08-28T19:05:52.009Z,79.90
2022-08-28T19:08:19.325Z,79.80
2022-08-28T19:10:46.895Z,80.00
2022-08-28T19:13:14.752Z,79.80
2022-08-28T19:15:44.569Z,79.70
2022-08-28T19:18:11.748Z,79.60
2022-08-28T19:20:38.922Z,79.60
2022-08-28T19:23:08.739Z,79.40
2022-08-28T19:25:38.111Z,79.50
2022-08-28T19:28:05.308Z,79.40
2022-08-28T19:30:33.962Z,79.00
2022-08-28T19:33:03.686Z,79.10
2022-08-28T19:35:33.927Z,79.00
2022-08-28T19:38:01.347Z,78.60
2022-08-28T19:40:29.066Z,78.60
2022-08-28T19:42:58.611Z,78.50
2022-08-28T19:45:30.310Z,78.00
2022-08-28T19:48:00.222Z,78.00
2022-08-28T19:50:27.502Z,78.00
2022-08-28T19:52:54.725Z,78.10
2022-08-28T19:55:25.759Z,78.20
2022-08-28T19:57:53.361Z,78.20
2022-08-28T20:00:24.369Z,78.10
2022-08-28T20:02:52.538Z,78.00
2022-08-28T20:05:20.336Z,78.10
2022-08-28T20:07:47.784Z,78.20
2022-08-28T20:10:18.035Z,78.40
2022-08-28T20:12:48.861Z,78.40
2022-08-28T20:15:18.322Z,78.40
2022-08-28T20:17:49.764Z,78.50
2022-08-28T20:20:19.951Z,78.40
2022-08-28T20:22:54.302Z,78.50
2022-08-28T20:25:24.206Z,78.70
2022-08-28T20:27:51.544Z,78.60
2022-08-28T20:30:23.822Z,78.70
2022-08-28T20:32:51.406Z,78.60
2022-08-28T20:35:19.103Z,78.60
2022-08-28T20:37:51.884Z,78.60
2022-08-28T20:40:20.323Z,78.60
2022-08-28T20:42:53.187Z,78.70
2022-08-28T20:45:21.903Z,78.70
2022-08-28T20:47:49.637Z,78.70
2022-08-28T20:50:17.987Z,78.60
2022-08-28T20:52:45.746Z,78.80
2022-08-28T20:55:14.854Z,78.80
2022-08-28T20:57:42.101Z,78.60
2022-08-28T21:00:12.716Z,78.90
2022-08-28T21:02:40.130Z,78.90
2022-08-28T21:05:07.782Z,79.10
2022-08-28T21:07:37.827Z,79.00
2022-08-28T21:10:08.192Z,79.40
2022-08-28T21:12:39.398Z,79.10
2022-08-28T21:15:12.463Z,79.10
2022-08-28T21:17:41.049Z,79.20
2022-08-28T21:20:14.409Z,79.10
2022-08-28T21:22:46.959Z,79.30
2022-08-28T21:25:18.131Z,79.40
2022-08-28T21:27:45.499Z,79.40
2022-08-28T21:30:18.553Z,79.50
2022-08-28T21:32:46.541Z,80.00
2022-08-28T21:35:19.595Z,79.80
2022-08-28T21:37:48.110Z,80.20
2022-08-28T21:40:22.465Z,79.90
2022-08-28T21:42:51.835Z,80.10
2022-08-28T21:45:19.053Z,80.00
2022-08-28T21:47:48.958Z,80.50
2022-08-28T21:50:17.529Z,80.60
2022-08-28T21:52:45.539Z,80.50
2022-08-28T21:55:16.267Z,81.00
2022-08-28T21:57:46.269Z,80.30
2022-08-28T22:00:19.060Z,80.40
2022-08-28T22:02:46.990Z,80.60
2022-08-28T22:05:17.376Z,81.00
2022-08-28T22:07:47.149Z,80.90
2022-08-28T22:10:16.675Z,81.10
2022-08-28T22:12:43.966Z,81.00
2022-08-28T22:15:11.384Z,81.40
2022-08-28T22:17:38.652Z,80.90
2022-08-28T22:20:06.329Z,81.00
2022-08-28T22:22:54.541Z,80.90
2022-08-28T22:25:24.009Z,81.10
2022-08-28T22:27:53.647Z,81.40
2022-08-28T22:30:26.339Z,81.20
2022-08-28T22:32:56.547Z,81.10
2022-08-28T22:35:23.934Z,81.20
2022-08-28T22:37:53.587Z,81.10
2022-08-28T22:40:27.622Z,81.50
2022-08-28T22:42:55.202Z,81.40
2022-08-28T22:45:23.317Z,81.50
2022-08-28T22:47:50.716Z,81.30
2022-08-28T22:50:22.536Z,81.30
2022-08-28T22:52:52.498Z,81.40
2022-08-28T22:55:21.063Z,81.50
2022-08-28T22:57:49.188Z,81.50
2022-08-28T23:00:20.338Z,81.60
2022-08-28T23:02:51.033Z,81.60
2022-08-28T23:05:22.187Z,81.70
2022-08-28T23:07:49.425Z,81.60
2022-08-28T23:10:19.240Z,81.60
2022-08-28T23:12:49.409Z,81.80
2022-08-28T23:15:21.693Z,81.70
2022-08-28T23:17:49.821Z,82.10
2022-08-28T23:20:19.801Z,81.70
2022-08-28T23:22:48.397Z,81.90
2022-08-28T23:25:19.348Z,81.80
2022-08-28T23:27:50.336Z,81.80
2022-08-28T23:30:19.082Z,81.80
2022-08-28T23:32:48.816Z,81.80
2022-08-28T23:35:17.373Z,81.90
2022-08-28T23:37:51.788Z,81.80
2022-08-28T23:40:23.950Z,81.90
2022-08-28T23:42:52.860Z,82.00
2022-08-28T23:45:20.662Z,82.10
2022-08-28T23:47:48.557Z,81.90
2022-08-28T23:50:22.060Z,82.20
2022-08-28T23:52:50.691Z,82.20
2022-08-28T23:55:19.564Z,82.20
2022-08-28T23:57:47.214Z,82.30
